Time;durP1;ratioP1;P1;durP2;ratioP2;P2;SDS_P1;SDS_P2;PMS_P1;PMS_P2;Temp;Humidity;BMP_temperature;BMP_pressure;BME280_temperature;BME280_humidity;BME280_pressure;Samples;Min_cycle;Max_cycle;Signal;HPM_P1;HPM_P2
2022/01/13 00:02:11;;;;;;;15.98;10.73;;;15.40;46.20;;;;;;5038800;28;20108;-34
2022/01/13 00:04:38;;;;;;;15.98;11.25;;;15.40;46.20;;;;;;5057877;28;20033;-34
2022/01/13 00:07:04;;;;;;;14.70;10.55;;;15.40;46.10;;;;;;5039560;28;20017;-34
2022/01/13 00:09:30;;;;;;;15.30;10.25;;;15.40;46.20;;;;;;5039766;28;20016;-34
2022/01/13 00:11:57;;;;;;;15.25;10.43;;;15.40;46.10;;;;;;5057512;28;20017;-34
2022/01/13 00:14:57;;;;;;;15.27;9.95;;;15.30;46.10;;;;;;5057658;28;20044;-33
2022/01/13 00:17:27;;;;;;;16.25;11.05;;;15.40;46.10;;;;;;5056242;28;20025;-34
2022/01/13 00:25:14;;;;;;;16.10;10.55;;;15.30;46.10;;;;;;4938467;29;20078;-34
2022/01/13 00:27:46;;;;;;;14.88;10.80;;;15.30;46.10;;;;;;4937674;29;20032;-33
2022/01/13 00:30:16;;;;;;;15.35;10.65;;;15.30;46.10;;;;;;4937108;29;20107;-34
2022/01/13 00:32:43;;;;;;;15.20;9.73;;;15.30;46.20;;;;;;4936870;29;20028;-33
2022/01/13 00:35:09;;;;;;;13.98;9.98;;;15.30;46.20;;;;;;4937329;29;20036;-35
2022/01/13 00:37:36;;;;;;;14.70;10.07;;;15.30;46.10;;;;;;4921641;29;20012;-33
2022/01/13 00:40:02;;;;;;;15.80;10.40;;;15.30;46.20;;;;;;4937112;29;20063;-35
2022/01/13 00:42:28;;;;;;;16.15;10.45;;;15.30;46.10;;;;;;4937754;29;20036;-33
2022/01/13 00:44:54;;;;;;;14.98;10.00;;;15.30;46.20;;;;;;4938599;29;20214;-34
2022/01/13 00:47:21;;;;;;;13.65;10.00;;;15.30;46.20;;;;;;4938483;29;20055;-35
2022/01/13 00:49:47;;;;;;;13.90;9.93;;;15.30;46.20;;;;;;4937708;29;20032;-34
2022/01/13 00:52:13;;;;;;;15.25;10.10;;;15.30;46.10;;;;;;4939200;29;20027;-34
2022/01/13 00:54:40;;;;;;;15.07;10.25;;;15.30;46.10;;;;;;4940358;29;20047;-34
2022/01/13 00:57:06;;;;;;;14.35;9.77;;;15.30;46.10;;;;;;4943700;29;20031;-34
2022/01/13 00:59:32;;;;;;;14.20;10.05;;;15.30;46.10;;;;;;5004748;28;20037;-36
2022/01/13 01:01:59;;;;;;;15.27;10.50;;;15.30;46.20;;;;;;5062833;28;20113;-35
2022/01/13 01:04:25;;;;;;;14.35;9.77;;;15.20;46.10;;;;;;5063683;28;20041;-35
2022/01/13 01:06:51;;;;;;;15.07;10.32;;;15.30;46.10;;;;;;5064293;28;20009;-35
2022/01/13 01:09:28;;;;;;;16.70;10.73;;;15.20;46.10;;;;;;5062686;28;20009;-36
2022/01/13 01:11:56;;;;;;;14.77;10.02;;;15.20;46.10;;;;;;5062948;28;20017;-35
2022/01/13 01:14:23;;;;;;;14.43;9.38;;;15.20;46.10;;;;;;5060794;28;20032;-35
2022/01/13 01:16:49;;;;;;;11.93;8.77;;;15.20;46.00;;;;;;5059911;28;20044;-35
2022/01/13 01:19:25;;;;;;;13.57;9.77;;;15.20;46.10;;;;;;5059386;28;20108;-35
2022/01/13 01:25:21;;;;;;;13.48;9.52;;;15.20;46.10;;;;;;5029147;28;20055;-35
2022/01/13 01:27:50;;;;;;;13.85;9.60;;;15.20;46.10;;;;;;5060042;28;20045;-35
2022/01/13 01:30:38;;;;;;;14.10;9.45;;;15.20;46.10;;;;;;5059999;28;20069;-35
2022/01/13 01:33:06;;;;;;;11.85;8.98;;;15.20;46.10;;;;;;5060845;28;20165;-35
2022/01/13 01:35:32;;;;;;;13.60;9.75;;;15.20;46.10;;;;;;5061175;28;20104;-36
2022/01/13 01:37:58;;;;;;;13.23;9.10;;;15.20;46.10;;;;;;5044948;28;20052;-35
2022/01/13 01:40:24;;;;;;;14.43;9.77;;;15.20;46.10;;;;;;5062487;28;20398;-35
2022/01/13 01:42:50;;;;;;;12.55;8.98;;;15.20;46.10;;;;;;5062120;28;20025;-36
2022/01/13 01:45:16;;;;;;;13.38;9.60;;;15.20;46.10;;;;;;5062680;28;20506;-36
2022/01/13 01:47:44;;;;;;;12.63;8.95;;;15.10;46.00;;;;;;5062436;28;20024;-36
2022/01/13 01:50:18;;;;;;;12.95;9.57;;;15.20;46.10;;;;;;5044605;28;20135;-36
2022/01/13 01:52:47;;;;;;;13.02;9.02;;;15.10;46.00;;;;;;5060862;28;20013;-35
2022/01/13 01:55:13;;;;;;;12.48;9.15;;;15.10;45.90;;;;;;5059499;28;20065;-35
2022/01/13 01:57:39;;;;;;;12.30;8.80;;;15.20;46.00;;;;;;5058285;28;20577;-35
2022/01/13 02:00:09;;;;;;;13.90;9.57;;;15.20;46.00;;;;;;5040455;28;20017;-35
2022/01/13 02:02:36;;;;;;;12.77;8.57;;;15.10;46.00;;;;;;5040336;28;20503;-35
2022/01/13 02:05:02;;;;;;;13.57;9.07;;;15.10;45.90;;;;;;5057198;28;20023;-35
2022/01/13 02:07:29;;;;;;;13.38;9.35;;;15.10;46.00;;;;;;5058081;28;20021;-35
2022/01/13 02:09:55;;;;;;;13.60;9.65;;;15.10;45.90;;;;;;5059054;28;20014;-35
2022/01/13 02:12:36;;;;;;;13.38;9.40;;;15.10;45.80;;;;;;5059688;28;20017;-36
2022/01/13 02:17:34;;;;;;;12.55;8.63;;;15.10;45.80;;;;;;5060710;28;20032;-35
2022/01/13 02:20:00;;;;;;;13.13;9.38;;;15.10;45.90;;;;;;5043023;28;20024;-35
2022/01/13 02:22:27;;;;;;;12.18;8.85;;;15.10;45.90;;;;;;5061470;28;20029;-35
2022/01/13 02:24:53;;;;;;;12.25;8.75;;;15.00;45.80;;;;;;5060847;28;20067;-35
2022/01/13 02:27:20;;;;;;;12.70;9.00;;;15.10;45.90;;;;;;5061003;28;20062;-35
2022/01/13 02:29:46;;;;;;;13.45;9.13;;;15.10;45.80;;;;;;5061571;28;20017;-35
2022/01/13 02:32:13;;;;;;;12.30;9.20;;;15.00;45.80;;;;;;5060676;28;20155;-35
2022/01/13 02:34:38;;;;;;;12.55;8.60;;;15.10;46.40;;;;;;5060670;28;20091;-35
2022/01/13 02:37:05;;;;;;;13.75;9.38;;;15.10;45.90;;;;;;5061053;28;20498;-35
2022/01/13 02:39:31;;;;;;;12.75;9.13;;;15.00;45.80;;;;;;5060359;28;20502;-36
2022/01/13 02:41:57;;;;;;;11.30;8.40;;;15.00;45.90;;;;;;5060159;28;20033;-35
2022/01/13 02:44:24;;;;;;;11.77;8.77;;;15.00;45.80;;;;;;5059947;28;20013;-35
2022/01/13 02:49:19;;;;;;;11.30;8.38;;;15.00;45.80;;;;;;5060279;28;20013;-35
2022/01/13 02:51:46;;;;;;;12.82;8.68;;;15.00;45.70;;;;;;5060136;28;20068;-35
2022/01/13 02:54:12;;;;;;;12.20;8.68;;;15.00;45.80;;;;;;5060452;28;20052;-35
2022/01/13 02:56:38;;;;;;;12.18;9.02;;;15.00;45.70;;;;;;5060929;28;20493;-35
2022/01/13 02:59:05;;;;;;;11.45;8.38;;;15.00;45.80;;;;;;5060954;28;20032;-35
2022/01/13 03:01:31;;;;;;;12.27;8.32;;;15.00;45.70;;;;;;5060411;28;20005;-35
2022/01/13 03:03:59;;;;;;;11.15;8.40;;;15.00;45.70;;;;;;5059557;28;20025;-36
2022/01/13 03:06:33;;;;;;;13.38;9.48;;;15.00;45.70;;;;;;5059275;28;20017;-35
2022/01/13 03:08:59;;;;;;;11.15;8.05;;;15.00;45.70;;;;;;5059268;28;20032;-35
2022/01/13 03:11:32;;;;;;;11.20;8.18;;;15.00;45.70;;;;;;5058564;28;20017;-36
2022/01/13 03:13:57;;;;;;;11.32;7.90;;;15.00;45.70;;;;;;5058081;28;20467;-35
2022/01/13 03:16:28;;;;;;;11.27;8.13;;;15.00;45.80;;;;;;5058357;28;20045;-35
2022/01/13 03:18:54;;;;;;;10.57;8.07;;;14.90;45.70;;;;;;5057973;28;20031;-36
2022/01/13 03:21:19;;;;;;;11.82;8.10;;;15.00;45.70;;;;;;5057698;28;20092;-36
2022/01/13 03:23:46;;;;;;;12.15;8.25;;;15.00;45.80;;;;;;5039816;28;20036;-35
2022/01/13 03:26:12;;;;;;;11.43;8.48;;;14.90;45.60;;;;;;5040290;28;20063;-34
2022/01/13 03:28:40;;;;;;;11.55;8.13;;;14.90;45.70;;;;;;5057997;28;20013;-35
2022/01/13 03:31:07;;;;;;;12.18;8.13;;;14.90;45.80;;;;;;5056953;28;20027;-35
2022/01/13 03:33:33;;;;;;;10.32;8.00;;;15.00;45.70;;;;;;5057363;28;20017;-34
2022/01/13 03:35:59;;;;;;;9.93;7.35;;;15.00;45.50;;;;;;5039060;28;20012;-35
2022/01/13 03:38:26;;;;;;;10.13;7.35;;;15.10;45.40;;;;;;5056041;28;20017;-35
2022/01/13 03:40:53;;;;;;;10.70;7.55;;;15.10;45.20;;;;;;5056499;28;20053;-34
2022/01/13 03:43:18;;;;;;;11.48;8.00;;;15.10;45.10;;;;;;5056425;28;20028;-35
2022/01/13 03:45:45;;;;;;;9.98;7.05;;;15.20;45.00;;;;;;5057187;28;20013;-34
2022/01/13 03:48:13;;;;;;;10.23;7.53;;;15.30;45.00;;;;;;5056244;28;20116;-35
2022/01/13 03:50:41;;;;;;;10.27;7.95;;;15.40;44.80;;;;;;5056423;28;20020;-35
2022/01/13 03:53:28;;;;;;;11.70;7.90;;;15.50;44.40;;;;;;5056227;28;20037;-35
2022/01/13 03:56:19;;;;;;;10.60;7.78;;;15.70;44.00;;;;;;5055828;28;20090;-34
2022/01/13 03:59:15;;;;;;;10.23;7.45;;;15.80;43.60;;;;;;5056217;28;20498;-35
2022/01/13 04:02:00;;;;;;;9.55;6.93;;;15.90;43.30;;;;;;5056119;28;20071;-35
2022/01/13 04:04:28;;;;;;;9.38;6.47;;;16.00;42.90;;;;;;5055087;28;20032;-36
2022/01/13 04:07:05;;;;;;;9.77;7.07;;;16.10;42.70;;;;;;5055467;28;20016;-36
2022/01/13 04:09:33;;;;;;;9.35;6.75;;;16.20;42.50;;;;;;5055624;28;20013;-36
2022/01/13 04:12:03;;;;;;;9.20;6.97;;;16.20;42.50;;;;;;5055567;28;20029;-36
2022/01/13 04:14:43;;;;;;;9.55;7.07;;;16.20;42.30;;;;;;5055416;28;20075;-36
2022/01/13 04:17:14;;;;;;;8.98;6.70;;;16.40;42.20;;;;;;5055567;28;20029;-37
2022/01/13 04:19:40;;;;;;;9.73;7.05;;;16.40;42.00;;;;;;5055862;28;20115;-36
2022/01/13 04:22:06;;;;;;;9.75;6.95;;;16.50;41.80;;;;;;5056218;28;20068;-36
2022/01/13 04:24:32;;;;;;;8.93;6.68;;;16.60;41.60;;;;;;5056319;28;20009;-37
2022/01/13 04:26:58;;;;;;;8.40;6.15;;;16.60;41.40;;;;;;5055563;28;20067;-36
2022/01/13 04:29:35;;;;;;;8.80;6.75;;;16.80;41.20;;;;;;5055418;28;20100;-36
2022/01/13 04:32:01;;;;;;;8.77;6.68;;;16.90;41.00;;;;;;5055918;28;20025;-36
2022/01/13 04:34:27;;;;;;;7.82;6.28;;;16.90;40.70;;;;;;5056114;28;20021;-36
2022/01/13 04:36:58;;;;;;;7.55;5.68;;;17.00;40.50;;;;;;5056747;28;20021;-36
2022/01/13 04:39:24;;;;;;;7.55;5.65;;;17.10;40.40;;;;;;5056084;28;20024;-37
2022/01/13 04:41:52;;;;;;;8.43;6.35;;;17.20;40.20;;;;;;5056250;28;20067;-35
2022/01/13 04:44:19;;;;;;;8.27;6.10;;;17.20;40.00;;;;;;5055827;28;20028;-37
2022/01/13 04:46:45;;;;;;;8.07;6.35;;;17.30;39.70;;;;;;5056640;28;20009;-37
2022/01/13 04:49:11;;;;;;;7.65;6.00;;;17.40;39.60;;;;;;5056670;28;20017;-36
2022/01/13 04:51:38;;;;;;;7.63;5.82;;;17.50;39.40;;;;;;5057091;28;20009;-36
2022/01/13 04:54:05;;;;;;;7.13;5.70;;;17.60;39.30;;;;;;5057127;28;20048;-37
2022/01/13 04:59:16;;;;;;;7.75;5.70;;;17.70;38.90;;;;;;5056292;28;20415;-36
2022/01/13 05:01:42;;;;;;;7.53;6.30;;;17.80;38.70;;;;;;5055657;28;20013;-36
2022/01/13 05:04:08;;;;;;;7.25;5.50;;;17.80;38.60;;;;;;5056134;28;20112;-36
2022/01/13 05:06:34;;;;;;;7.40;5.75;;;17.90;38.50;;;;;;5055735;28;20097;-36
2022/01/13 05:09:01;;;;;;;7.65;5.97;;;17.90;38.30;;;;;;5038198;28;20067;-37
2022/01/13 05:11:27;;;;;;;6.72;5.20;;;18.00;38.20;;;;;;5037719;28;20032;-36
2022/01/13 05:13:53;;;;;;;5.78;4.80;;;18.10;38.10;;;;;;5055119;28;20044;-36
2022/01/13 05:16:34;;;;;;;7.15;5.65;;;18.10;37.90;;;;;;5054774;28;20048;-36
2022/01/13 05:21:55;;;;;;;6.35;5.05;;;18.30;37.60;;;;;;5055088;28;20036;-36
2022/01/13 05:24:21;;;;;;;6.90;5.28;;;18.30;37.50;;;;;;5055591;28;20025;-36
2022/01/13 05:26:49;;;;;;;6.07;5.05;;;18.40;37.30;;;;;;5055705;28;20033;-36
2022/01/13 05:29:20;;;;;;;5.93;4.95;;;18.40;37.30;;;;;;5056279;28;20013;-36
2022/01/13 05:31:46;;;;;;;7.35;5.28;;;18.50;37.20;;;;;;5055585;28;20051;-36
2022/01/13 05:34:12;;;;;;;7.40;5.40;;;18.60;37.10;;;;;;5055389;28;20077;-36
2022/01/13 05:36:38;;;;;;;6.55;5.20;;;18.60;37.00;;;;;;5055545;28;20110;-37
2022/01/13 05:39:04;;;;;;;6.38;5.15;;;18.70;36.90;;;;;;5056048;28;20005;-36
2022/01/13 05:41:31;;;;;;;7.03;5.55;;;18.70;36.70;;;;;;5057707;28;20067;-36
2022/01/13 05:43:57;;;;;;;7.15;5.47;;;18.80;36.60;;;;;;5059518;28;20025;-37
2022/01/13 05:46:23;;;;;;;6.13;5.05;;;18.80;36.50;;;;;;5059651;28;20052;-36
2022/01/13 05:48:50;;;;;;;5.93;4.97;;;18.90;36.40;;;;;;5058744;28;20009;-36
2022/01/13 05:51:16;;;;;;;6.35;5.10;;;18.90;36.30;;;;;;5058886;28;20010;-36
2022/01/13 05:53:42;;;;;;;6.13;5.00;;;19.00;36.20;;;;;;5058698;28;20021;-36
2022/01/13 05:56:09;;;;;;;6.45;5.15;;;19.00;36.10;;;;;;5058511;28;20013;-36
2022/01/13 05:58:35;;;;;;;6.78;5.30;;;19.10;36.00;;;;;;5040845;28;20025;-36
2022/01/13 06:01:01;;;;;;;5.55;4.45;;;19.10;35.90;;;;;;5041597;28;20021;-36
2022/01/13 06:03:26;;;;;;;5.95;4.90;;;19.20;35.90;;;;;;5059063;28;20044;-37
2022/01/13 06:05:52;;;;;;;6.65;5.13;;;19.20;35.80;;;;;;5059320;28;20014;-38
2022/01/13 06:08:18;;;;;;;6.22;5.07;;;19.20;35.60;;;;;;5041437;28;20060;-37
2022/01/13 06:10:46;;;;;;;6.20;4.75;;;19.30;35.50;;;;;;5060791;28;20036;-37
2022/01/13 06:13:13;;;;;;;5.78;4.55;;;19.30;35.40;;;;;;5042326;28;20025;-37
2022/01/13 06:15:38;;;;;;;6.38;5.30;;;19.40;35.30;;;;;;5059441;28;20052;-37
2022/01/13 06:18:05;;;;;;;6.30;4.85;;;19.40;35.10;;;;;;5058822;28;20017;-37
2022/01/13 06:20:30;;;;;;;5.50;4.60;;;19.50;35.10;;;;;;5040035;28;20021;-38
2022/01/13 06:23:00;;;;;;;5.70;4.68;;;19.50;34.80;;;;;;5058134;28;20391;-37
2022/01/13 06:25:26;;;;;;;5.63;4.80;;;19.50;34.80;;;;;;5058344;28;20100;-38
2022/01/13 06:27:52;;;;;;;5.70;4.55;;;19.50;34.80;;;;;;5040878;28;20017;-37
2022/01/13 06:30:18;;;;;;;5.38;4.50;;;19.40;34.70;;;;;;5057516;28;20029;-39
2022/01/13 06:32:44;;;;;;;6.63;5.10;;;19.50;34.60;;;;;;5058672;28;20022;-39
2022/01/13 06:35:10;;;;;;;5.78;4.80;;;19.50;34.50;;;;;;5058033;28;20139;-38
2022/01/13 06:37:36;;;;;;;5.85;4.60;;;19.60;34.50;;;;;;5058542;28;20544;-37
2022/01/13 06:40:03;;;;;;;5.15;4.40;;;19.60;34.40;;;;;;5058357;28;20029;-39
2022/01/13 06:42:29;;;;;;;5.65;4.32;;;19.70;34.90;;;;;;5060063;28;20087;-38
2022/01/13 06:44:55;;;;;;;5.10;4.30;;;19.70;34.20;;;;;;5059648;28;20523;-38
2022/01/13 06:47:21;;;;;;;5.40;4.30;;;19.80;34.20;;;;;;5058407;28;20017;-37
2022/01/13 06:49:47;;;;;;;6.03;4.40;;;19.80;34.10;;;;;;5059428;28;20048;-38
2022/01/13 06:52:13;;;;;;;5.35;4.32;;;19.90;34.60;;;;;;5038488;28;20044;-37
2022/01/13 06:54:39;;;;;;;6.22;4.50;;;19.90;34.00;;;;;;5034215;28;20524;-37
2022/01/13 06:57:05;;;;;;;5.20;4.28;;;20.00;34.00;;;;;;5036420;28;20021;-36
2022/01/13 06:59:31;;;;;;;6.15;4.20;;;20.00;33.90;;;;;;5036588;28;20022;-37
2022/01/13 07:01:59;;;;;;;4.80;4.15;;;20.10;33.80;;;;;;5037721;28;20025;-38
2022/01/13 07:04:26;;;;;;;5.75;4.85;;;20.10;33.70;;;;;;5037527;28;20484;-37
2022/01/13 07:06:52;;;;;;;5.68;4.45;;;20.10;33.60;;;;;;5037062;28;20021;-38
2022/01/13 07:09:18;;;;;;;5.63;4.53;;;20.20;33.70;;;;;;5034779;28;20021;-37
2022/01/13 07:11:45;;;;;;;5.53;4.38;;;20.20;33.60;;;;;;5034367;28;20021;-37
2022/01/13 07:14:11;;;;;;;5.03;4.38;;;20.20;33.50;;;;;;5034610;28;20032;-37
2022/01/13 07:16:37;;;;;;;5.63;4.38;;;20.30;33.50;;;;;;5033839;28;20337;-37
2022/01/13 07:19:04;;;;;;;5.50;4.47;;;20.30;33.40;;;;;;5033021;28;20048;-37
2022/01/13 07:21:31;;;;;;;5.30;4.40;;;20.40;33.30;;;;;;5032854;28;20018;-37
2022/01/13 07:23:57;;;;;;;6.47;4.93;;;20.40;33.30;;;;;;5032170;28;20017;-35
2022/01/13 07:26:22;;;;;;;11.38;7.13;;;20.20;33.40;;;;;;5033271;28;20028;-35
2022/01/13 07:28:48;;;;;;;16.33;9.40;;;19.60;34.80;;;;;;5033817;28;20357;-35
2022/01/13 07:31:15;;;;;;;18.27;10.68;;;18.60;35.70;;;;;;5033743;28;20009;-37
2022/01/13 07:33:41;;;;;;;19.02;11.32;;;17.70;38.00;;;;;;5034262;28;20028;-34
2022/01/13 07:36:07;;;;;;;17.58;11.35;;;17.80;37.50;;;;;;5032656;28;20030;-36
2022/01/13 07:38:33;;;;;;;16.70;11.48;;;17.80;37.00;;;;;;5034281;28;20358;-35
2022/01/13 07:40:59;;;;;;;16.27;11.02;;;17.80;36.80;;;;;;5034368;28;20030;-34
2022/01/13 07:43:27;;;;;;;19.48;11.82;;;17.80;36.50;;;;;;5034792;28;20514;-35
2022/01/13 07:45:56;;;;;;;15.52;11.02;;;17.80;36.30;;;;;;5033524;28;20096;-34
2022/01/13 07:48:24;;;;;;;16.52;11.15;;;17.90;36.00;;;;;;5033111;28;20392;-34
2022/01/13 07:50:50;;;;;;;16.52;10.80;;;18.00;35.70;;;;;;5033705;28;20012;-35
2022/01/13 07:53:19;;;;;;;14.48;10.45;;;18.00;35.60;;;;;;5038197;28;20449;-35
2022/01/13 07:55:49;;;;;;;14.45;10.45;;;18.00;35.60;;;;;;5055585;28;20503;-35
2022/01/13 07:58:17;;;;;;;;;;;17.90;35.50;;;;;;5073947;28;20022;-35
2022/01/13 08:00:43;;;;;;;15.57;10.98;;;17.80;35.40;;;;;;5072571;28;19960;-35
2022/01/13 08:03:08;;;;;;;17.00;11.70;;;17.40;36.00;;;;;;5073263;28;20032;-35
2022/01/13 08:05:35;;;;;;;14.07;10.65;;;17.50;36.10;;;;;;5074296;28;20035;-34
2022/01/13 08:08:01;;;;;;;15.00;10.30;;;17.50;36.00;;;;;;5073569;28;20036;-35
2022/01/13 08:10:26;;;;;;;16.33;9.88;;;17.60;35.80;;;;;;5055313;28;20070;-35
2022/01/13 08:12:52;;;;;;;17.05;10.23;;;17.60;35.70;;;;;;5072050;28;20027;-37
2022/01/13 08:15:18;;;;;;;15.05;10.10;;;17.60;35.70;;;;;;5072888;28;20107;-37
2022/01/13 08:20:32;;;;;;;13.45;8.90;;;18.10;35.30;;;;;;5074523;28;20032;-35
2022/01/13 08:22:58;;;;;;;12.13;8.15;;;18.50;34.70;;;;;;5039099;28;20040;-35
2022/01/13 08:25:24;;;;;;;13.48;7.88;;;18.80;34.40;;;;;;5056397;28;20020;-36
2022/01/13 08:27:50;;;;;;;15.38;8.18;;;19.00;34.00;;;;;;5073963;28;20418;-35
2022/01/13 08:30:16;;;;;;;10.77;6.90;;;19.20;33.80;;;;;;5073897;28;20015;-42
2022/01/13 08:32:42;;;;;;;10.05;6.95;;;19.30;33.50;;;;;;5056164;28;20013;-36
2022/01/13 08:35:09;;;;;;;11.65;6.65;;;19.40;33.20;;;;;;5073812;28;20050;-36
2022/01/13 08:37:34;;;;;;;9.25;6.28;;;19.60;33.20;;;;;;5055364;28;20474;-36
2022/01/13 08:40:01;;;;;;;9.70;6.82;;;19.60;33.10;;;;;;5073958;28;20013;-36
2022/01/13 08:42:27;;;;;;;12.75;6.88;;;19.60;33.10;;;;;;5074595;28;20085;-36
2022/01/13 08:44:53;;;;;;;10.32;6.85;;;19.70;33.10;;;;;;5076590;28;20463;-36
2022/01/13 08:47:21;;;;;;;10.15;6.55;;;19.70;32.90;;;;;;5076289;28;20023;-36
2022/01/13 08:49:46;;;;;;;10.55;6.88;;;19.80;32.80;;;;;;5074823;28;20091;-36
2022/01/13 08:52:12;;;;;;;9.18;6.05;;;19.90;32.70;;;;;;5073750;28;20490;-36
2022/01/13 08:54:38;;;;;;;9.25;6.40;;;20.00;32.60;;;;;;5073035;28;20514;-35
2022/01/13 08:57:06;;;;;;;10.57;6.50;;;20.10;32.50;;;;;;5074209;28;20035;-37
2022/01/13 08:59:32;;;;;;;8.73;6.40;;;20.10;32.40;;;;;;5073802;28;20013;-36
2022/01/13 09:01:57;;;;;;;9.27;6.38;;;20.20;32.30;;;;;;5072214;28;20043;-36
2022/01/13 09:04:23;;;;;;;8.55;6.10;;;20.20;32.20;;;;;;5072355;28;20012;-36
2022/01/13 09:06:49;;;;;;;9.82;6.45;;;20.20;32.10;;;;;;5054471;28;20013;-36
2022/01/13 09:09:14;;;;;;;9.00;6.43;;;20.30;32.10;;;;;;5071455;28;20009;-36
2022/01/13 09:11:43;;;;;;;10.38;6.40;;;20.30;32.00;;;;;;5072135;28;20021;-36
2022/01/13 09:14:08;;;;;;;10.10;6.10;;;20.30;31.90;;;;;;5070963;28;20021;-35
2022/01/13 09:16:41;;;;;;;9.63;6.00;;;20.40;31.90;;;;;;5072837;28;20024;-36
2022/01/13 09:19:12;;;;;;;11.95;6.85;;;20.30;32.00;;;;;;5056661;28;20015;-35
2022/01/13 09:21:39;;;;;;;17.40;8.77;;;19.90;32.60;;;;;;5074911;28;20031;-35
2022/01/13 09:24:07;;;;;;;21.55;9.30;;;19.70;33.20;;;;;;5075314;28;20144;-36
2022/01/13 09:26:33;;;;;;;20.25;9.13;;;19.50;33.40;;;;;;5074551;28;20036;-36
2022/01/13 09:28:58;;;;;;;20.15;9.25;;;19.50;33.50;;;;;;5075389;28;20463;-36
2022/01/13 09:31:26;;;;;;;14.45;9.27;;;19.40;33.80;;;;;;5075004;28;20175;-35
2022/01/13 09:33:53;;;;;;;14.85;8.77;;;19.40;33.70;;;;;;5074829;28;20114;-36
2022/01/13 09:36:19;;;;;;;18.15;9.23;;;19.40;33.80;;;;;;5075040;28;20024;-35
2022/01/13 09:38:45;;;;;;;18.67;9.70;;;19.30;33.60;;;;;;5075556;28;20016;-36
2022/01/13 09:41:11;;;;;;;17.05;9.57;;;19.30;33.40;;;;;;5075109;28;20198;-36
2022/01/13 09:43:37;;;;;;;12.77;9.48;;;19.30;33.40;;;;;;5040239;28;20028;-35
2022/01/13 09:46:03;;;;;;;15.95;9.13;;;19.30;33.50;;;;;;5057332;28;20024;-35
2022/01/13 09:48:32;;;;;;;15.07;10.05;;;19.20;33.40;;;;;;5075405;28;20021;-35
2022/01/13 09:50:58;;;;;;;14.37;9.57;;;19.20;33.40;;;;;;5056712;28;20009;-35
2022/01/13 09:53:24;;;;;;;14.30;9.25;;;19.20;33.50;;;;;;5074524;28;20115;-36
2022/01/13 09:55:53;;;;;;;15.07;9.93;;;19.20;33.50;;;;;;5074920;28;20017;-35
2022/01/13 09:58:21;;;;;;;13.32;9.93;;;19.30;33.60;;;;;;5074685;28;20092;-36
2022/01/13 10:00:47;;;;;;;14.82;9.55;;;19.20;33.50;;;;;;5074876;28;20085;-35
2022/01/13 10:03:16;;;;;;;16.67;9.55;;;19.30;34.00;;;;;;5075133;28;20043;-35
2022/01/13 10:05:52;;;;;;;13.38;8.88;;;19.30;33.30;;;;;;5075113;28;20020;-35
2022/01/13 10:08:41;;;;;;;16.70;9.40;;;19.30;33.30;;;;;;5073831;28;20032;-36
2022/01/13 10:11:26;;;;;;;20.67;9.73;;;19.30;33.40;;;;;;5076578;28;20012;-36
2022/01/13 10:16:54;;;;;;;22.20;10.13;;;19.30;34.00;;;;;;5076873;28;20082;-36
2022/01/13 10:19:26;;;;;;;21.20;10.25;;;19.30;34.20;;;;;;5060663;28;20094;-36
2022/01/13 10:21:56;;;;;;;17.40;9.95;;;19.30;34.20;;;;;;5076451;28;20051;-36
2022/01/13 10:24:25;;;;;;;16.05;9.85;;;19.30;34.10;;;;;;5076310;28;20044;-37
2022/01/13 10:27:07;;;;;;;16.50;10.30;;;19.30;34.00;;;;;;5074907;28;20013;-35
2022/01/13 10:30:14;;;;;;;18.10;9.25;;;19.30;33.90;;;;;;5076082;28;20025;-36
2022/01/13 10:32:41;;;;;;;17.45;9.95;;;19.40;33.90;;;;;;5063329;28;20020;-36
2022/01/13 10:35:20;;;;;;;15.80;9.70;;;19.40;33.70;;;;;;5076109;28;20016;-35
2022/01/13 10:37:53;;;;;;;16.48;10.13;;;19.40;33.60;;;;;;5074854;28;20074;-36
2022/01/13 10:40:29;;;;;;;15.07;10.50;;;19.40;33.50;;;;;;5075150;28;20051;-37
2022/01/13 10:45:50;;;;;;;14.38;10.32;;;19.40;33.20;;;;;;5075037;28;20467;-36
2022/01/13 10:48:23;;;;;;;15.65;10.02;;;19.40;33.40;;;;;;5057039;28;20021;-36
2022/01/13 10:50:50;;;;;;;14.35;10.00;;;19.40;33.50;;;;;;5076453;28;20017;-37
2022/01/13 10:53:22;;;;;;;16.08;10.45;;;19.40;33.50;;;;;;5076159;28;20035;-36
2022/01/13 10:55:53;;;;;;;14.00;9.98;;;19.40;33.60;;;;;;5075421;28;20104;-37
2022/01/13 10:58:24;;;;;;;15.77;10.73;;;19.40;33.60;;;;;;5076108;28;20062;-37
2022/01/13 11:00:50;;;;;;;17.90;11.25;;;19.40;33.60;;;;;;5059331;28;20028;-36
2022/01/13 11:03:24;;;;;;;19.70;11.27;;;19.40;33.70;;;;;;5077476;28;20244;-38
2022/01/13 11:05:56;;;;;;;19.70;11.07;;;19.40;33.70;;;;;;5079231;28;20479;-37
2022/01/13 11:08:28;;;;;;;17.08;11.07;;;19.40;33.60;;;;;;5077385;28;20008;-39
2022/01/13 11:10:56;;;;;;;19.92;11.23;;;19.40;33.70;;;;;;5077949;28;20043;-38
2022/01/13 11:13:23;;;;;;;20.40;12.20;;;19.30;34.00;;;;;;5060302;28;20094;-38
2022/01/13 11:15:53;;;;;;;23.25;12.57;;;19.20;34.20;;;;;;5076753;28;20024;-37
2022/01/13 11:18:20;;;;;;;19.23;12.43;;;19.10;34.30;;;;;;5080322;28;20024;-37
2022/01/13 11:20:47;;;;;;;21.60;12.60;;;19.10;34.40;;;;;;5081165;28;20340;-37
2022/01/13 11:23:13;;;;;;;20.40;13.15;;;19.00;34.70;;;;;;5078523;28;20084;-38
2022/01/13 11:25:39;;;;;;;22.63;13.60;;;18.90;34.60;;;;;;5060265;28;20510;-38
2022/01/13 11:28:05;;;;;;;21.88;13.20;;;18.80;34.70;;;;;;5059845;28;20016;-36
2022/01/13 11:30:31;;;;;;;21.80;13.65;;;18.80;34.80;;;;;;5060500;28;20100;-38
2022/01/13 11:32:57;;;;;;;21.42;12.80;;;18.80;34.80;;;;;;5078416;28;20538;-37
2022/01/13 11:35:28;;;;;;;21.35;12.73;;;18.80;34.80;;;;;;5077945;28;20045;-36
2022/01/13 11:37:56;;;;;;;18.95;12.18;;;18.90;34.60;;;;;;5060333;28;20107;-40
2022/01/13 11:40:28;;;;;;;17.60;11.18;;;19.00;34.50;;;;;;5060048;28;20016;-39
2022/01/13 11:42:54;;;;;;;17.70;11.10;;;19.10;34.30;;;;;;5078535;28;20033;-38
2022/01/13 11:45:21;;;;;;;16.58;11.35;;;19.20;34.20;;;;;;5077707;28;20016;-38
2022/01/13 11:47:47;;;;;;;20.33;12.07;;;19.30;34.10;;;;;;5073490;28;20023;-37
2022/01/13 11:50:20;;;;;;;19.00;11.27;;;19.30;34.10;;;;;;5071996;28;20091;-37
2022/01/13 11:52:55;;;;;;;24.45;11.38;;;19.20;34.40;;;;;;5073181;28;20008;-41
2022/01/13 11:55:32;;;;;;;21.45;13.07;;;19.10;35.30;;;;;;5039714;28;20050;-35
2022/01/13 11:58:10;;;;;;;21.92;12.30;;;19.10;35.80;;;;;;5055502;28;20103;-35
2022/01/13 12:00:36;;;;;;;22.75;12.32;;;19.00;35.90;;;;;;5072679;28;20367;-36
2022/01/13 12:03:31;;;;;;;19.52;11.60;;;19.00;35.90;;;;;;5072525;28;20035;-35
2022/01/13 12:05:59;;;;;;;18.60;11.77;;;19.00;35.90;;;;;;5072085;28;20078;-37
2022/01/13 12:08:45;;;;;;;19.73;11.93;;;19.00;35.80;;;;;;5054830;28;20016;-36
2022/01/13 12:11:39;;;;;;;18.85;12.05;;;18.90;35.80;;;;;;5071988;28;20084;-36
2022/01/13 12:14:29;;;;;;;19.20;12.20;;;18.90;35.80;;;;;;5071913;28;20021;-36
2022/01/13 12:17:01;;;;;;;22.30;12.07;;;19.00;35.80;;;;;;5071945;28;20135;-36
2022/01/13 12:19:33;;;;;;;21.25;11.50;;;19.00;35.70;;;;;;5071669;28;20107;-37
2022/01/13 12:22:10;;;;;;;22.75;11.32;;;19.00;35.70;;;;;;5071282;28;20051;-37
2022/01/13 12:24:42;;;;;;;18.45;11.20;;;18.90;35.80;;;;;;5071497;28;20072;-37
2022/01/13 12:27:08;;;;;;;21.85;11.77;;;18.90;35.80;;;;;;5072012;28;20023;-37
2022/01/13 12:29:36;;;;;;;21.17;11.70;;;19.00;35.80;;;;;;5071222;28;20393;-35
2022/01/13 12:32:06;;;;;;;18.73;11.13;;;18.90;35.90;;;;;;5054130;28;20021;-37
2022/01/13 12:34:35;;;;;;;19.90;12.35;;;18.90;36.00;;;;;;5071997;28;20017;-37
2022/01/13 12:37:14;;;;;;;18.73;11.57;;;18.90;36.00;;;;;;5071808;28;20036;-37
2022/01/13 12:39:52;;;;;;;28.67;12.23;;;19.00;35.80;;;;;;5071983;28;20013;-37
2022/01/13 12:42:20;;;;;;;25.00;11.98;;;19.10;36.10;;;;;;5072561;28;20158;-37
2022/01/13 12:47:31;;;;;;;24.15;11.55;;;19.20;36.90;;;;;;5058721;28;20423;-37
2022/01/13 12:49:58;;;;;;;49.80;22.92;;;19.20;37.20;;;;;;5072860;28;20024;-36
2022/01/13 12:52:25;;;;;;;58.92;28.85;;;19.10;37.50;;;;;;5056301;28;20032;-37
2022/01/13 12:54:52;;;;;;;50.80;24.55;;;19.10;37.70;;;;;;5074449;28;20029;-36
2022/01/13 12:57:18;;;;;;;41.75;20.35;;;19.00;37.80;;;;;;5073988;28;20024;-36
2022/01/13 12:59:44;;;;;;;29.20;16.17;;;19.00;37.90;;;;;;5073020;28;20024;-36
2022/01/13 13:02:11;;;;;;;25.40;14.13;;;19.00;38.00;;;;;;5071872;28;20048;-36
2022/01/13 13:04:37;;;;;;;23.60;13.55;;;19.00;38.00;;;;;;5071838;28;20075;-36
2022/01/13 13:07:03;;;;;;;21.05;12.80;;;19.00;38.00;;;;;;5054283;28;20103;-35
2022/01/13 13:09:30;;;;;;;22.35;13.10;;;19.00;38.20;;;;;;5072304;28;20036;-36
2022/01/13 13:12:03;;;;;;;20.73;13.20;;;19.00;37.90;;;;;;5054692;28;20020;-37
2022/01/13 13:17:34;;;;;;;23.48;11.82;;;19.10;37.90;;;;;;5025975;28;20024;-35